Turner Center, Maine
Current Conditions -  °F | °C
As of 7:35 AM on Tuesday 27 Jan 2015 (Local Time) from KLEW Reporting Station
Overcast Overcast  
Wind Chill: -24°   Ceiling: 500
Heat Index: -13°   Visibility: 0.25mi
Dew Point: -16°   Wind: 22mph
Humidity: 79%   Direction: 10°N
Pressure: 29.75"   Gusts: 33mph
Location:  44.27°N, 70.22°W
Report Text: KLEW 271235Z AUTO 01019G29KT 1/4SM OVC005 M13/M16 A2975 RMK AO1
Loading
Personal Weather Stations






























Interactive Weather Map New forecast layout! Learn more

10-Day Weather Forecast

Advertisements
Track Severe Weather on mobile